sensor_id;sensor_type;location;lat;lon;timestamp;P1;durP1;ratioP1;P2;durP2;ratioP2
62790;SDS011;48830;53.426;10.300;2023-05-07T00:01:05;13.43;;;9.60;;
62790;SDS011;48830;53.426;10.300;2023-05-07T00:03:31;13.05;;;9.07;;
62790;SDS011;48830;53.426;10.300;2023-05-07T00:05:57;12.27;;;8.30;;
62790;SDS011;48830;53.426;10.300;2023-05-07T00:08:23;12.37;;;8.27;;
62790;SDS011;48830;53.426;10.300;2023-05-07T00:10:48;11.48;;;8.02;;
62790;SDS011;48830;53.426;10.300;2023-05-07T00:13:14;12.57;;;9.15;;
62790;SDS011;48830;53.426;10.300;2023-05-07T00:15:39;11.77;;;8.02;;
62790;SDS011;48830;53.426;10.300;2023-05-07T00:18:05;12.82;;;9.18;;
62790;SDS011;48830;53.426;10.300;2023-05-07T00:20:30;12.80;;;8.88;;
62790;SDS011;48830;53.426;10.300;2023-05-07T00:22:55;12.07;;;8.55;;
62790;SDS011;48830;53.426;10.300;2023-05-07T00:25:21;12.52;;;8.73;;
62790;SDS011;48830;53.426;10.300;2023-05-07T00:27:46;12.52;;;8.32;;
62790;SDS011;48830;53.426;10.300;2023-05-07T00:30:12;12.47;;;8.40;;
62790;SDS011;48830;53.426;10.300;2023-05-07T00:32:37;11.48;;;8.27;;
62790;SDS011;48830;53.426;10.300;2023-05-07T00:35:04;14.53;;;8.87;;
62790;SDS011;48830;53.426;10.300;2023-05-07T00:37:30;13.07;;;8.63;;
62790;SDS011;48830;53.426;10.300;2023-05-07T00:39:56;13.82;;;8.50;;
62790;SDS011;48830;53.426;10.300;2023-05-07T00:42:21;12.30;;;8.65;;
62790;SDS011;48830;53.426;10.300;2023-05-07T00:44:47;11.70;;;8.57;;
62790;SDS011;48830;53.426;10.300;2023-05-07T00:47:13;12.13;;;8.25;;
62790;SDS011;48830;53.426;10.300;2023-05-07T00:49:41;11.40;;;8.02;;
62790;SDS011;48830;53.426;10.300;2023-05-07T00:52:09;10.88;;;7.57;;
62790;SDS011;48830;53.426;10.300;2023-05-07T00:54:38;10.50;;;7.20;;
62790;SDS011;48830;53.426;10.300;2023-05-07T00:57:05;13.10;;;7.57;;
62790;SDS011;48830;53.426;10.300;2023-05-07T00:59:31;10.43;;;7.20;;
62790;SDS011;48830;53.426;10.300;2023-05-07T01:01:58;12.32;;;7.43;;
62790;SDS011;48830;53.426;10.300;2023-05-07T01:04:24;10.83;;;7.63;;
62790;SDS011;48830;53.426;10.300;2023-05-07T01:06:49;10.40;;;7.07;;
62790;SDS011;48830;53.426;10.300;2023-05-07T01:09:16;11.02;;;7.15;;
62790;SDS011;48830;53.426;10.300;2023-05-07T01:11:42;10.23;;;6.97;;
62790;SDS011;48830;53.426;10.300;2023-05-07T01:14:09;12.38;;;7.80;;
62790;SDS011;48830;53.426;10.300;2023-05-07T01:16:34;11.38;;;7.78;;
62790;SDS011;48830;53.426;10.300;2023-05-07T01:19:01;10.37;;;6.73;;
62790;SDS011;48830;53.426;10.300;2023-05-07T01:21:26;8.57;;;6.47;;
62790;SDS011;48830;53.426;10.300;2023-05-07T01:23:58;9.88;;;6.47;;
62790;SDS011;48830;53.426;10.300;2023-05-07T01:26:24;8.70;;;6.43;;
62790;SDS011;48830;53.426;10.300;2023-05-07T01:28:49;9.25;;;6.55;;
62790;SDS011;48830;53.426;10.300;2023-05-07T01:31:15;8.37;;;6.57;;
62790;SDS011;48830;53.426;10.300;2023-05-07T01:33:42;9.50;;;6.65;;
62790;SDS011;48830;53.426;10.300;2023-05-07T01:36:11;9.60;;;6.80;;
62790;SDS011;48830;53.426;10.300;2023-05-07T01:38:38;9.65;;;7.18;;
62790;SDS011;48830;53.426;10.300;2023-05-07T01:41:05;10.25;;;7.18;;
62790;SDS011;48830;53.426;10.300;2023-05-07T01:43:32;11.37;;;8.13;;
62790;SDS011;48830;53.426;10.300;2023-05-07T01:45:58;9.60;;;6.97;;
62790;SDS011;48830;53.426;10.300;2023-05-07T01:48:25;9.50;;;7.28;;
62790;SDS011;48830;53.426;10.300;2023-05-07T01:50:51;12.37;;;7.97;;
62790;SDS011;48830;53.426;10.300;2023-05-07T01:53:17;13.65;;;8.23;;
62790;SDS011;48830;53.426;10.300;2023-05-07T01:55:43;12.95;;;8.43;;
62790;SDS011;48830;53.426;10.300;2023-05-07T01:58:08;11.27;;;7.60;;
62790;SDS011;48830;53.426;10.300;2023-05-07T02:00:34;12.85;;;7.68;;
62790;SDS011;48830;53.426;10.300;2023-05-07T02:02:59;12.45;;;8.13;;
62790;SDS011;48830;53.426;10.300;2023-05-07T02:05:34;11.02;;;7.90;;
62790;SDS011;48830;53.426;10.300;2023-05-07T02:08:13;12.70;;;7.93;;
62790;SDS011;48830;53.426;10.300;2023-05-07T02:10:38;12.40;;;8.00;;
62790;SDS011;48830;53.426;10.300;2023-05-07T02:13:05;11.85;;;8.07;;
62790;SDS011;48830;53.426;10.300;2023-05-07T02:15:30;11.10;;;8.13;;
62790;SDS011;48830;53.426;10.300;2023-05-07T02:18:03;11.35;;;7.75;;
62790;SDS011;48830;53.426;10.300;2023-05-07T02:20:29;11.93;;;7.82;;
62790;SDS011;48830;53.426;10.300;2023-05-07T02:22:55;11.50;;;7.82;;
62790;SDS011;48830;53.426;10.300;2023-05-07T02:25:21;13.02;;;8.32;;
62790;SDS011;48830;53.426;10.300;2023-05-07T02:27:46;14.40;;;8.35;;
62790;SDS011;48830;53.426;10.300;2023-05-07T02:30:13;11.30;;;7.90;;
62790;SDS011;48830;53.426;10.300;2023-05-07T02:32:40;12.75;;;8.43;;
62790;SDS011;48830;53.426;10.300;2023-05-07T02:35:05;12.18;;;7.82;;
62790;SDS011;48830;53.426;10.300;2023-05-07T02:37:31;13.10;;;8.80;;
62790;SDS011;48830;53.426;10.300;2023-05-07T02:39:56;13.47;;;8.47;;
62790;SDS011;48830;53.426;10.300;2023-05-07T02:42:22;13.68;;;8.93;;
62790;SDS011;48830;53.426;10.300;2023-05-07T02:44:47;12.93;;;9.45;;
62790;SDS011;48830;53.426;10.300;2023-05-07T02:47:14;12.30;;;8.27;;
62790;SDS011;48830;53.426;10.300;2023-05-07T02:49:41;13.40;;;9.65;;
62790;SDS011;48830;53.426;10.300;2023-05-07T02:52:07;12.32;;;8.55;;
62790;SDS011;48830;53.426;10.300;2023-05-07T02:54:33;15.00;;;8.98;;
62790;SDS011;48830;53.426;10.300;2023-05-07T02:56:59;12.70;;;8.60;;
62790;SDS011;48830;53.426;10.300;2023-05-07T02:59:26;11.68;;;8.20;;
62790;SDS011;48830;53.426;10.300;2023-05-07T03:01:51;11.88;;;8.50;;
62790;SDS011;48830;53.426;10.300;2023-05-07T03:04:17;12.00;;;8.38;;
62790;SDS011;48830;53.426;10.300;2023-05-07T03:06:42;11.68;;;8.45;;
62790;SDS011;48830;53.426;10.300;2023-05-07T03:09:08;10.55;;;7.72;;
62790;SDS011;48830;53.426;10.300;2023-05-07T03:11:34;12.10;;;8.65;;
62790;SDS011;48830;53.426;10.300;2023-05-07T03:14:01;11.02;;;8.20;;
62790;SDS011;48830;53.426;10.300;2023-05-07T03:16:26;11.30;;;8.20;;
62790;SDS011;48830;53.426;10.300;2023-05-07T03:18:53;12.40;;;8.70;;
62790;SDS011;48830;53.426;10.300;2023-05-07T03:21:18;11.60;;;8.77;;
62790;SDS011;48830;53.426;10.300;2023-05-07T03:23:43;11.10;;;7.50;;
62790;SDS011;48830;53.426;10.300;2023-05-07T03:26:09;10.68;;;7.78;;
62790;SDS011;48830;53.426;10.300;2023-05-07T03:28:34;11.85;;;8.30;;
62790;SDS011;48830;53.426;10.300;2023-05-07T03:31:03;10.93;;;7.90;;
62790;SDS011;48830;53.426;10.300;2023-05-07T03:33:30;12.20;;;8.33;;
62790;SDS011;48830;53.426;10.300;2023-05-07T03:35:57;10.88;;;8.23;;
62790;SDS011;48830;53.426;10.300;2023-05-07T03:38:24;11.75;;;8.57;;
62790;SDS011;48830;53.426;10.300;2023-05-07T03:40:50;14.88;;;8.63;;
62790;SDS011;48830;53.426;10.300;2023-05-07T03:43:16;11.75;;;8.15;;
62790;SDS011;48830;53.426;10.300;2023-05-07T03:45:46;14.73;;;8.65;;
62790;SDS011;48830;53.426;10.300;2023-05-07T03:48:16;11.25;;;8.07;;
62790;SDS011;48830;53.426;10.300;2023-05-07T03:50:42;12.05;;;8.02;;
62790;SDS011;48830;53.426;10.300;2023-05-07T03:53:07;11.57;;;7.82;;
62790;SDS011;48830;53.426;10.300;2023-05-07T03:55:37;13.20;;;8.05;;
62790;SDS011;48830;53.426;10.300;2023-05-07T03:58:03;11.43;;;8.50;;
62790;SDS011;48830;53.426;10.300;2023-05-07T04:00:29;12.13;;;8.25;;
62790;SDS011;48830;53.426;10.300;2023-05-07T04:02:58;12.18;;;8.57;;
62790;SDS011;48830;53.426;10.300;2023-05-07T04:05:27;11.40;;;8.00;;
62790;SDS011;48830;53.426;10.300;2023-05-07T04:08:00;10.65;;;7.55;;
62790;SDS011;48830;53.426;10.300;2023-05-07T04:10:33;13.55;;;8.05;;
62790;SDS011;48830;53.426;10.300;2023-05-07T04:13:02;12.15;;;8.20;;
62790;SDS011;48830;53.426;10.300;2023-05-07T04:15:28;12.13;;;8.13;;
62790;SDS011;48830;53.426;10.300;2023-05-07T04:17:54;11.63;;;7.50;;
62790;SDS011;48830;53.426;10.300;2023-05-07T04:20:21;11.63;;;8.13;;
62790;SDS011;48830;53.426;10.300;2023-05-07T04:22:53;12.80;;;8.00;;
62790;SDS011;48830;53.426;10.300;2023-05-07T04:25:18;10.40;;;7.82;;
62790;SDS011;48830;53.426;10.300;2023-05-07T04:27:44;11.85;;;7.85;;
62790;SDS011;48830;53.426;10.300;2023-05-07T04:30:11;12.90;;;7.60;;
62790;SDS011;48830;53.426;10.300;2023-05-07T04:32:38;10.90;;;7.10;;
62790;SDS011;48830;53.426;10.300;2023-05-07T04:35:04;10.95;;;7.05;;
62790;SDS011;48830;53.426;10.300;2023-05-07T04:37:31;10.25;;;7.30;;
62790;SDS011;48830;53.426;10.300;2023-05-07T04:39:58;10.43;;;7.57;;
62790;SDS011;48830;53.426;10.300;2023-05-07T04:42:23;12.00;;;7.18;;
62790;SDS011;48830;53.426;10.300;2023-05-07T04:44:52;10.20;;;7.22;;
62790;SDS011;48830;53.426;10.300;2023-05-07T04:47:18;10.50;;;7.15;;
62790;SDS011;48830;53.426;10.300;2023-05-07T04:49:44;11.65;;;7.60;;
62790;SDS011;48830;53.426;10.300;2023-05-07T04:52:10;10.95;;;7.13;;
62790;SDS011;48830;53.426;10.300;2023-05-07T04:54:36;11.50;;;7.18;;
62790;SDS011;48830;53.426;10.300;2023-05-07T04:57:03;11.48;;;7.70;;
62790;SDS011;48830;53.426;10.300;2023-05-07T04:59:29;11.15;;;7.95;;
62790;SDS011;48830;53.426;10.300;2023-05-07T05:01:55;12.30;;;7.20;;
62790;SDS011;48830;53.426;10.300;2023-05-07T05:04:20;10.27;;;6.90;;
62790;SDS011;48830;53.426;10.300;2023-05-07T05:06:46;9.95;;;6.88;;
62790;SDS011;48830;53.426;10.300;2023-05-07T05:09:13;10.68;;;7.10;;
62790;SDS011;48830;53.426;10.300;2023-05-07T05:11:40;11.05;;;7.38;;
62790;SDS011;48830;53.426;10.300;2023-05-07T05:14:05;11.98;;;7.90;;
62790;SDS011;48830;53.426;10.300;2023-05-07T05:16:31;10.20;;;7.30;;
62790;SDS011;48830;53.426;10.300;2023-05-07T05:18:57;11.35;;;7.65;;
62790;SDS011;48830;53.426;10.300;2023-05-07T05:21:23;11.07;;;7.30;;
62790;SDS011;48830;53.426;10.300;2023-05-07T05:23:52;11.27;;;8.05;;
62790;SDS011;48830;53.426;10.300;2023-05-07T05:26:20;11.13;;;7.90;;
62790;SDS011;48830;53.426;10.300;2023-05-07T05:28:48;10.95;;;7.75;;
62790;SDS011;48830;53.426;10.300;2023-05-07T05:31:16;11.68;;;8.00;;
62790;SDS011;48830;53.426;10.300;2023-05-07T05:33:42;12.13;;;7.82;;
62790;SDS011;48830;53.426;10.300;2023-05-07T05:36:09;10.97;;;8.27;;
62790;SDS011;48830;53.426;10.300;2023-05-07T05:38:36;11.25;;;7.65;;
62790;SDS011;48830;53.426;10.300;2023-05-07T05:41:02;11.60;;;8.30;;
62790;SDS011;48830;53.426;10.300;2023-05-07T05:43:29;10.93;;;7.68;;
62790;SDS011;48830;53.426;10.300;2023-05-07T05:45:55;10.85;;;7.65;;
62790;SDS011;48830;53.426;10.300;2023-05-07T05:48:21;11.35;;;7.93;;
62790;SDS011;48830;53.426;10.300;2023-05-07T05:50:48;11.48;;;8.38;;
62790;SDS011;48830;53.426;10.300;2023-05-07T05:53:15;10.93;;;8.00;;
62790;SDS011;48830;53.426;10.300;2023-05-07T05:55:41;10.60;;;7.85;;
62790;SDS011;48830;53.426;10.300;2023-05-07T05:58:08;10.55;;;7.80;;
62790;SDS011;48830;53.426;10.300;2023-05-07T06:00:38;11.57;;;8.13;;
62790;SDS011;48830;53.426;10.300;2023-05-07T06:03:05;11.93;;;7.40;;
62790;SDS011;48830;53.426;10.300;2023-05-07T06:05:30;10.75;;;7.40;;
62790;SDS011;48830;53.426;10.300;2023-05-07T06:07:56;10.88;;;7.40;;
62790;SDS011;48830;53.426;10.300;2023-05-07T06:10:21;10.80;;;7.60;;
62790;SDS011;48830;53.426;10.300;2023-05-07T06:12:47;11.48;;;7.65;;
62790;SDS011;48830;53.426;10.300;2023-05-07T06:15:13;10.45;;;7.93;;
62790;SDS011;48830;53.426;10.300;2023-05-07T06:17:39;11.52;;;7.78;;
62790;SDS011;48830;53.426;10.300;2023-05-07T06:20:06;10.50;;;7.45;;
62790;SDS011;48830;53.426;10.300;2023-05-07T06:22:32;10.05;;;7.25;;
62790;SDS011;48830;53.426;10.300;2023-05-07T06:24:58;9.63;;;6.95;;
62790;SDS011;48830;53.426;10.300;2023-05-07T06:27:24;9.25;;;6.20;;
62790;SDS011;48830;53.426;10.300;2023-05-07T06:29:50;11.40;;;7.47;;
62790;SDS011;48830;53.426;10.300;2023-05-07T06:32:16;11.60;;;7.57;;
62790;SDS011;48830;53.426;10.300;2023-05-07T06:34:43;10.25;;;6.72;;
62790;SDS011;48830;53.426;10.300;2023-05-07T06:37:10;10.80;;;6.82;;
62790;SDS011;48830;53.426;10.300;2023-05-07T06:39:50;8.82;;;6.25;;
62790;SDS011;48830;53.426;10.300;2023-05-07T06:42:15;10.48;;;6.25;;
62790;SDS011;48830;53.426;10.300;2023-05-07T06:44:44;11.43;;;6.95;;
62790;SDS011;48830;53.426;10.300;2023-05-07T06:47:12;9.70;;;6.40;;
62790;SDS011;48830;53.426;10.300;2023-05-07T06:49:39;9.68;;;6.40;;
62790;SDS011;48830;53.426;10.300;2023-05-07T06:52:04;9.48;;;6.43;;
62790;SDS011;48830;53.426;10.300;2023-05-07T06:54:30;9.05;;;6.47;;
62790;SDS011;48830;53.426;10.300;2023-05-07T06:56:56;10.10;;;6.28;;
62790;SDS011;48830;53.426;10.300;2023-05-07T06:59:24;11.55;;;6.30;;
62790;SDS011;48830;53.426;10.300;2023-05-07T07:01:50;8.60;;;6.03;;
62790;SDS011;48830;53.426;10.300;2023-05-07T07:04:16;9.30;;;6.28;;
62790;SDS011;48830;53.426;10.300;2023-05-07T07:06:45;8.75;;;6.15;;
62790;SDS011;48830;53.426;10.300;2023-05-07T07:09:12;10.52;;;6.15;;
62790;SDS011;48830;53.426;10.300;2023-05-07T07:11:39;10.13;;;6.70;;
62790;SDS011;48830;53.426;10.300;2023-05-07T07:14:05;9.32;;;6.30;;
62790;SDS011;48830;53.426;10.300;2023-05-07T07:16:34;13.05;;;6.20;;
62790;SDS011;48830;53.426;10.300;2023-05-07T07:19:00;10.30;;;5.78;;
62790;SDS011;48830;53.426;10.300;2023-05-07T07:21:26;9.57;;;6.40;;
62790;SDS011;48830;53.426;10.300;2023-05-07T07:23:52;8.52;;;6.18;;
62790;SDS011;48830;53.426;10.300;2023-05-07T07:26:18;9.55;;;5.85;;
62790;SDS011;48830;53.426;10.300;2023-05-07T07:28:44;10.65;;;6.40;;
62790;SDS011;48830;53.426;10.300;2023-05-07T07:31:11;9.80;;;6.10;;
62790;SDS011;48830;53.426;10.300;2023-05-07T07:33:37;8.93;;;6.07;;
62790;SDS011;48830;53.426;10.300;2023-05-07T07:36:03;9.63;;;5.88;;
62790;SDS011;48830;53.426;10.300;2023-05-07T07:38:30;7.80;;;5.50;;
62790;SDS011;48830;53.426;10.300;2023-05-07T07:40:56;8.73;;;5.82;;
62790;SDS011;48830;53.426;10.300;2023-05-07T07:43:22;8.38;;;5.40;;
62790;SDS011;48830;53.426;10.300;2023-05-07T07:45:48;9.60;;;5.40;;
62790;SDS011;48830;53.426;10.300;2023-05-07T07:48:13;8.70;;;5.85;;
62790;SDS011;48830;53.426;10.300;2023-05-07T07:50:39;7.28;;;5.18;;
62790;SDS011;48830;53.426;10.300;2023-05-07T07:53:05;8.20;;;5.60;;
62790;SDS011;48830;53.426;10.300;2023-05-07T07:55:30;9.43;;;5.70;;
62790;SDS011;48830;53.426;10.300;2023-05-07T07:57:57;8.63;;;5.40;;
62790;SDS011;48830;53.426;10.300;2023-05-07T08:00:23;8.90;;;5.80;;
62790;SDS011;48830;53.426;10.300;2023-05-07T08:02:52;7.20;;;5.07;;
62790;SDS011;48830;53.426;10.300;2023-05-07T08:05:24;7.95;;;5.35;;
62790;SDS011;48830;53.426;10.300;2023-05-07T08:07:51;8.35;;;5.82;;
62790;SDS011;48830;53.426;10.300;2023-05-07T08:10:21;10.80;;;6.20;;
62790;SDS011;48830;53.426;10.300;2023-05-07T08:12:49;11.02;;;6.20;;
62790;SDS011;48830;53.426;10.300;2023-05-07T08:15:15;9.27;;;6.65;;
62790;SDS011;48830;53.426;10.300;2023-05-07T08:17:42;10.15;;;6.40;;
62790;SDS011;48830;53.426;10.300;2023-05-07T08:20:08;9.15;;;6.70;;
62790;SDS011;48830;53.426;10.300;2023-05-07T08:22:34;8.52;;;6.22;;
62790;SDS011;48830;53.426;10.300;2023-05-07T08:25:00;8.85;;;6.40;;
62790;SDS011;48830;53.426;10.300;2023-05-07T08:27:27;11.15;;;6.10;;
62790;SDS011;48830;53.426;10.300;2023-05-07T08:29:53;13.38;;;7.65;;
62790;SDS011;48830;53.426;10.300;2023-05-07T08:32:20;11.50;;;7.00;;
62790;SDS011;48830;53.426;10.300;2023-05-07T08:34:46;12.15;;;7.60;;
62790;SDS011;48830;53.426;10.300;2023-05-07T08:37:12;9.90;;;6.30;;
62790;SDS011;48830;53.426;10.300;2023-05-07T08:39:37;8.50;;;6.15;;
62790;SDS011;48830;53.426;10.300;2023-05-07T08:42:09;8.90;;;5.70;;
62790;SDS011;48830;53.426;10.300;2023-05-07T08:44:34;8.07;;;5.72;;
62790;SDS011;48830;53.426;10.300;2023-05-07T08:47:01;8.05;;;5.70;;
62790;SDS011;48830;53.426;10.300;2023-05-07T08:49:28;7.20;;;4.85;;
62790;SDS011;48830;53.426;10.300;2023-05-07T08:51:54;7.50;;;4.88;;
62790;SDS011;48830;53.426;10.300;2023-05-07T08:54:21;7.63;;;5.43;;
62790;SDS011;48830;53.426;10.300;2023-05-07T08:56:47;7.22;;;4.78;;
62790;SDS011;48830;53.426;10.300;2023-05-07T08:59:13;7.53;;;5.20;;
62790;SDS011;48830;53.426;10.300;2023-05-07T09:01:41;10.90;;;5.40;;
62790;SDS011;48830;53.426;10.300;2023-05-07T09:04:06;8.93;;;5.65;;
62790;SDS011;48830;53.426;10.300;2023-05-07T09:06:33;9.57;;;5.80;;
62790;SDS011;48830;53.426;10.300;2023-05-07T09:09:00;8.82;;;5.38;;
62790;SDS011;48830;53.426;10.300;2023-05-07T09:11:28;8.40;;;5.70;;
62790;SDS011;48830;53.426;10.300;2023-05-07T09:13:56;7.97;;;5.50;;
62790;SDS011;48830;53.426;10.300;2023-05-07T09:16:25;8.70;;;6.07;;
62790;SDS011;48830;53.426;10.300;2023-05-07T09:18:51;8.50;;;6.00;;
62790;SDS011;48830;53.426;10.300;2023-05-07T09:21:19;9.27;;;5.68;;
62790;SDS011;48830;53.426;10.300;2023-05-07T09:23:47;8.20;;;6.25;;
62790;SDS011;48830;53.426;10.300;2023-05-07T09:26:18;8.48;;;5.55;;
62790;SDS011;48830;53.426;10.300;2023-05-07T09:28:45;9.93;;;5.70;;
62790;SDS011;48830;53.426;10.300;2023-05-07T09:31:12;7.40;;;5.45;;
62790;SDS011;48830;53.426;10.300;2023-05-07T09:33:38;8.27;;;5.55;;
62790;SDS011;48830;53.426;10.300;2023-05-07T09:36:06;7.93;;;5.60;;
62790;SDS011;48830;53.426;10.300;2023-05-07T09:38:35;8.73;;;5.97;;
62790;SDS011;48830;53.426;10.300;2023-05-07T09:41:04;8.15;;;5.78;;
62790;SDS011;48830;53.426;10.300;2023-05-07T09:43:37;7.82;;;5.28;;
62790;SDS011;48830;53.426;10.300;2023-05-07T09:46:15;8.18;;;5.68;;
62790;SDS011;48830;53.426;10.300;2023-05-07T09:48:47;7.50;;;5.50;;
62790;SDS011;48830;53.426;10.300;2023-05-07T09:53:49;6.93;;;4.95;;
62790;SDS011;48830;53.426;10.300;2023-05-07T09:56:16;7.25;;;5.32;;
62790;SDS011;48830;53.426;10.300;2023-05-07T09:58:43;8.15;;;5.40;;
62790;SDS011;48830;53.426;10.300;2023-05-07T10:01:11;8.13;;;5.32;;
62790;SDS011;48830;53.426;10.300;2023-05-07T10:03:42;8.30;;;5.57;;
62790;SDS011;48830;53.426;10.300;2023-05-07T10:06:09;8.00;;;5.43;;
62790;SDS011;48830;53.426;10.300;2023-05-07T10:08:36;7.40;;;5.28;;
62790;SDS011;48830;53.426;10.300;2023-05-07T10:11:03;7.22;;;5.07;;
62790;SDS011;48830;53.426;10.300;2023-05-07T10:13:32;7.13;;;4.90;;
62790;SDS011;48830;53.426;10.300;2023-05-07T10:16:01;6.88;;;5.00;;
62790;SDS011;48830;53.426;10.300;2023-05-07T10:18:33;7.05;;;4.70;;
62790;SDS011;48830;53.426;10.300;2023-05-07T10:21:08;7.90;;;5.43;;
62790;SDS011;48830;53.426;10.300;2023-05-07T10:23:36;7.22;;;4.68;;
62790;SDS011;48830;53.426;10.300;2023-05-07T10:26:05;7.82;;;5.00;;
62790;SDS011;48830;53.426;10.300;2023-05-07T10:28:36;6.60;;;4.72;;
62790;SDS011;48830;53.426;10.300;2023-05-07T10:31:15;7.65;;;4.78;;
62790;SDS011;48830;53.426;10.300;2023-05-07T10:33:46;6.97;;;5.00;;
62790;SDS011;48830;53.426;10.300;2023-05-07T10:36:14;7.10;;;4.82;;
62790;SDS011;48830;53.426;10.300;2023-05-07T10:38:40;7.28;;;5.07;;
62790;SDS011;48830;53.426;10.300;2023-05-07T10:41:06;6.30;;;4.40;;
62790;SDS011;48830;53.426;10.300;2023-05-07T10:43:38;8.10;;;4.93;;
62790;SDS011;48830;53.426;10.300;2023-05-07T10:46:18;7.65;;;5.00;;
62790;SDS011;48830;53.426;10.300;2023-05-07T10:51:45;7.40;;;4.78;;
62790;SDS011;48830;53.426;10.300;2023-05-07T10:54:26;7.80;;;4.53;;
62790;SDS011;48830;53.426;10.300;2023-05-07T10:57:03;7.43;;;4.78;;
62790;SDS011;48830;53.426;10.300;2023-05-07T11:00:03;6.22;;;4.53;;
62790;SDS011;48830;53.426;10.300;2023-05-07T11:05:31;6.65;;;4.22;;
62790;SDS011;48830;53.426;10.300;2023-05-07T11:08:21;7.47;;;4.30;;
62790;SDS011;48830;53.426;10.300;2023-05-07T11:11:03;6.40;;;4.50;;
62790;SDS011;48830;53.426;10.300;2023-05-07T11:13:44;8.77;;;4.80;;
62790;SDS011;48830;53.426;10.300;2023-05-07T11:18:49;7.05;;;4.50;;
62790;SDS011;48830;53.426;10.300;2023-05-07T11:21:36;8.35;;;4.25;;
62790;SDS011;48830;53.426;10.300;2023-05-07T11:24:33;6.55;;;3.72;;
62790;SDS011;48830;53.426;10.300;2023-05-07T11:27:05;6.03;;;3.78;;
62790;SDS011;48830;53.426;10.300;2023-05-07T11:29:31;6.07;;;3.40;;
62790;SDS011;48830;53.426;10.300;2023-05-07T11:32:09;5.38;;;3.50;;
62790;SDS011;48830;53.426;10.300;2023-05-07T11:34:45;6.05;;;3.85;;
62790;SDS011;48830;53.426;10.300;2023-05-07T11:37:12;6.13;;;3.85;;
62790;SDS011;48830;53.426;10.300;2023-05-07T11:39:49;5.22;;;3.50;;
62790;SDS011;48830;53.426;10.300;2023-05-07T11:42:29;7.40;;;3.30;;
62790;SDS011;48830;53.426;10.300;2023-05-07T11:44:56;5.68;;;3.20;;
62790;SDS011;48830;53.426;10.300;2023-05-07T11:47:23;4.63;;;3.05;;
62790;SDS011;48830;53.426;10.300;2023-05-07T11:49:49;4.55;;;3.10;;
62790;SDS011;48830;53.426;10.300;2023-05-07T11:52:17;5.38;;;3.10;;
62790;SDS011;48830;53.426;10.300;2023-05-07T11:54:50;5.40;;;3.35;;
62790;SDS011;48830;53.426;10.300;2023-05-07T11:57:25;7.90;;;3.20;;
62790;SDS011;48830;53.426;10.300;2023-05-07T11:59:57;6.05;;;3.22;;
62790;SDS011;48830;53.426;10.300;2023-05-07T12:02:24;4.45;;;3.00;;
62790;SDS011;48830;53.426;10.300;2023-05-07T12:04:51;5.63;;;3.40;;
62790;SDS011;48830;53.426;10.300;2023-05-07T12:07:17;5.20;;;3.13;;
62790;SDS011;48830;53.426;10.300;2023-05-07T12:09:43;4.72;;;2.65;;
62790;SDS011;48830;53.426;10.300;2023-05-07T12:12:10;4.75;;;3.17;;
62790;SDS011;48830;53.426;10.300;2023-05-07T12:14:40;6.40;;;2.97;;
62790;SDS011;48830;53.426;10.300;2023-05-07T12:17:10;4.88;;;3.15;;
62790;SDS011;48830;53.426;10.300;2023-05-07T12:19:37;5.03;;;2.70;;
62790;SDS011;48830;53.426;10.300;2023-05-07T12:22:09;6.20;;;2.92;;
62790;SDS011;48830;53.426;10.300;2023-05-07T12:24:48;4.65;;;2.92;;
62790;SDS011;48830;53.426;10.300;2023-05-07T12:27:15;3.90;;;2.72;;
62790;SDS011;48830;53.426;10.300;2023-05-07T12:29:46;4.47;;;3.08;;
62790;SDS011;48830;53.426;10.300;2023-05-07T12:32:13;4.72;;;2.80;;
62790;SDS011;48830;53.426;10.300;2023-05-07T12:34:40;5.88;;;3.30;;
62790;SDS011;48830;53.426;10.300;2023-05-07T12:37:05;5.28;;;3.22;;
62790;SDS011;48830;53.426;10.300;2023-05-07T12:39:31;5.30;;;3.22;;
62790;SDS011;48830;53.426;10.300;2023-05-07T12:42:00;4.07;;;2.80;;
62790;SDS011;48830;53.426;10.300;2023-05-07T12:44:28;4.72;;;3.00;;
62790;SDS011;48830;53.426;10.300;2023-05-07T12:46:55;5.03;;;3.13;;
62790;SDS011;48830;53.426;10.300;2023-05-07T12:49:22;4.13;;;2.50;;
62790;SDS011;48830;53.426;10.300;2023-05-07T12:51:48;4.38;;;2.60;;
62790;SDS011;48830;53.426;10.300;2023-05-07T12:54:34;4.53;;;2.65;;
62790;SDS011;48830;53.426;10.300;2023-05-07T12:59:32;4.35;;;2.70;;
62790;SDS011;48830;53.426;10.300;2023-05-07T13:02:05;6.43;;;2.78;;
62790;SDS011;48830;53.426;10.300;2023-05-07T13:04:31;3.75;;;2.47;;
62790;SDS011;48830;53.426;10.300;2023-05-07T13:06:57;3.88;;;2.63;;
62790;SDS011;48830;53.426;10.300;2023-05-07T13:09:23;4.03;;;2.40;;
62790;SDS011;48830;53.426;10.300;2023-05-07T13:11:48;4.43;;;2.63;;
62790;SDS011;48830;53.426;10.300;2023-05-07T13:14:14;4.00;;;2.40;;
62790;SDS011;48830;53.426;10.300;2023-05-07T13:16:40;3.55;;;2.13;;
62790;SDS011;48830;53.426;10.300;2023-05-07T13:19:05;3.75;;;2.30;;
62790;SDS011;48830;53.426;10.300;2023-05-07T13:21:31;4.15;;;2.50;;
62790;SDS011;48830;53.426;10.300;2023-05-07T13:23:59;5.25;;;2.42;;
62790;SDS011;48830;53.426;10.300;2023-05-07T13:26:25;4.63;;;2.53;;
62790;SDS011;48830;53.426;10.300;2023-05-07T13:28:51;3.90;;;2.25;;
62790;SDS011;48830;53.426;10.300;2023-05-07T13:31:19;3.25;;;2.10;;
62790;SDS011;48830;53.426;10.300;2023-05-07T13:33:46;3.05;;;2.17;;
62790;SDS011;48830;53.426;10.300;2023-05-07T13:36:11;3.05;;;2.05;;
62790;SDS011;48830;53.426;10.300;2023-05-07T13:38:37;4.78;;;2.30;;
62790;SDS011;48830;53.426;10.300;2023-05-07T13:41:02;3.20;;;2.15;;
62790;SDS011;48830;53.426;10.300;2023-05-07T13:43:28;4.22;;;2.40;;
62790;SDS011;48830;53.426;10.300;2023-05-07T13:45:53;3.03;;;2.00;;
62790;SDS011;48830;53.426;10.300;2023-05-07T13:48:19;4.55;;;2.30;;
62790;SDS011;48830;53.426;10.300;2023-05-07T13:50:44;4.18;;;2.22;;
62790;SDS011;48830;53.426;10.300;2023-05-07T13:53:10;3.72;;;2.05;;
62790;SDS011;48830;53.426;10.300;2023-05-07T13:55:35;3.00;;;2.17;;
62790;SDS011;48830;53.426;10.300;2023-05-07T13:58:01;3.70;;;2.10;;
62790;SDS011;48830;53.426;10.300;2023-05-07T14:00:28;2.35;;;1.95;;
62790;SDS011;48830;53.426;10.300;2023-05-07T14:02:54;3.50;;;2.30;;
62790;SDS011;48830;53.426;10.300;2023-05-07T14:05:21;3.78;;;2.20;;
62790;SDS011;48830;53.426;10.300;2023-05-07T14:07:48;3.22;;;2.10;;
62790;SDS011;48830;53.426;10.300;2023-05-07T14:10:17;3.95;;;2.20;;
62790;SDS011;48830;53.426;10.300;2023-05-07T14:12:43;4.25;;;2.10;;
62790;SDS011;48830;53.426;10.300;2023-05-07T14:15:11;3.25;;;2.22;;
62790;SDS011;48830;53.426;10.300;2023-05-07T14:17:37;3.10;;;2.10;;
62790;SDS011;48830;53.426;10.300;2023-05-07T14:20:02;3.42;;;2.20;;
62790;SDS011;48830;53.426;10.300;2023-05-07T14:22:28;3.60;;;2.28;;
62790;SDS011;48830;53.426;10.300;2023-05-07T14:24:54;3.50;;;2.25;;
62790;SDS011;48830;53.426;10.300;2023-05-07T14:27:19;3.25;;;2.38;;
62790;SDS011;48830;53.426;10.300;2023-05-07T14:29:44;3.83;;;2.55;;
62790;SDS011;48830;53.426;10.300;2023-05-07T14:32:10;5.10;;;2.33;;
62790;SDS011;48830;53.426;10.300;2023-05-07T14:34:37;3.50;;;2.33;;
62790;SDS011;48830;53.426;10.300;2023-05-07T14:37:02;4.28;;;2.30;;
62790;SDS011;48830;53.426;10.300;2023-05-07T14:39:28;2.70;;;2.20;;
62790;SDS011;48830;53.426;10.300;2023-05-07T14:41:54;3.40;;;2.20;;
62790;SDS011;48830;53.426;10.300;2023-05-07T14:44:21;3.65;;;2.38;;